NKS931 KSAN-KSMF
Flight info
| Callsign | NKS931 |
|---|---|
| Flight time | 1h 13m |
| Altitude | 36000 |
| Route | PADRZ2 EHF NURAY SUUTR4 |
| Aircraft | A21N/M-SDE3FGHIRWY/LB1 |
Departure
| Time | 2026-05-05 00:29 |
|---|---|
| Airport | San Diego International Airport (KSAN) |
Arrival
| Time | 2026-05-05 01:42 |
|---|---|
| Airport | Sacramento International Airport (KSMF) |
| Time | Latitude | Longitude | Altitude | Speed | Heading |
|---|---|---|---|---|---|
| 2026-05-04 23:48 | 32.73343 | -117.20469 | 21 ft | 0 kts | 77° |
| 2026-05-05 00:11 | 32.73342 | -117.20477 | 21 ft | 2 kts | 91° |
| 2026-05-05 00:11 | 32.73343 | -117.20495 | 21 ft | 2 kts | 90° |
| 2026-05-05 00:11 | 32.73342 | -117.20512 | 21 ft | 2 kts | 88° |
| 2026-05-05 00:11 | 32.73342 | -117.20531 | 21 ft | 2 kts | 89° |
| 2026-05-05 00:12 | 32.73342 | -117.20548 | 21 ft | 2 kts | 89° |
| 2026-05-05 00:12 | 32.73341 | -117.20566 | 21 ft | 1 kts | 89° |
| 2026-05-05 00:12 | 32.73342 | -117.20574 | 21 ft | 0 kts | 69° |
| 2026-05-05 00:12 | 32.73338 | -117.20579 | 21 ft | 1 kts | 34° |
| 2026-05-05 00:13 | 32.73336 | -117.20581 | 21 ft | 0 kts | 36° |
| 2026-05-05 00:18 | 32.73363 | -117.20566 | 21 ft | 6 kts | 15° |
| 2026-05-05 00:18 | 32.73409 | -117.20559 | 21 ft | 7 kts | 4° |
| 2026-05-05 00:18 | 32.73461 | -117.20551 | 21 ft | 7 kts | 15° |
| 2026-05-05 00:18 | 32.73509 | -117.20517 | 21 ft | 8 kts | 50° |
| 2026-05-05 00:19 | 32.73549 | -117.20459 | 21 ft | 9 kts | 50° |
| 2026-05-05 00:19 | 32.73586 | -117.20393 | 21 ft | 9 kts | 78° |
| 2026-05-05 00:19 | 32.73576 | -117.20298 | 22 ft | 12 kts | 105° |
| 2026-05-05 00:19 | 32.73550 | -117.20197 | 22 ft | 12 kts | 107° |
| 2026-05-05 00:20 | 32.73526 | -117.20097 | 22 ft | 12 kts | 106° |
| 2026-05-05 00:20 | 32.73502 | -117.19996 | 23 ft | 12 kts | 105° |
| 2026-05-05 00:20 | 32.73478 | -117.19894 | 23 ft | 12 kts | 106° |
| 2026-05-05 00:20 | 32.73452 | -117.19790 | 23 ft | 12 kts | 106° |
| 2026-05-05 00:21 | 32.73427 | -117.19688 | 24 ft | 12 kts | 106° |
| 2026-05-05 00:21 | 32.73402 | -117.19585 | 24 ft | 13 kts | 106° |
| 2026-05-05 00:21 | 32.73376 | -117.19480 | 24 ft | 13 kts | 106° |
| 2026-05-05 00:21 | 32.73350 | -117.19370 | 24 ft | 14 kts | 106° |
| 2026-05-05 00:22 | 32.73320 | -117.19250 | 24 ft | 14 kts | 106° |
| 2026-05-05 00:22 | 32.73294 | -117.19132 | 24 ft | 14 kts | 107° |
| 2026-05-05 00:22 | 32.73264 | -117.19015 | 24 ft | 14 kts | 107° |
| 2026-05-05 00:22 | 32.73234 | -117.18888 | 24 ft | 16 kts | 106° |
| 2026-05-05 00:23 | 32.73201 | -117.18752 | 24 ft | 18 kts | 106° |
| 2026-05-05 00:23 | 32.73166 | -117.18610 | 24 ft | 17 kts | 107° |
| 2026-05-05 00:23 | 32.73134 | -117.18471 | 24 ft | 17 kts | 103° |
| 2026-05-05 00:23 | 32.73101 | -117.18334 | 25 ft | 17 kts | 107° |
| 2026-05-05 00:24 | 32.73066 | -117.18201 | 25 ft | 16 kts | 106° |
| 2026-05-05 00:24 | 32.73033 | -117.18060 | 25 ft | 18 kts | 105° |
| 2026-05-05 00:24 | 32.72998 | -117.17918 | 25 ft | 17 kts | 106° |
| 2026-05-05 00:24 | 32.72965 | -117.17781 | 26 ft | 13 kts | 105° |
| 2026-05-05 00:25 | 32.72951 | -117.17696 | 26 ft | 6 kts | 84° |
| 2026-05-05 00:25 | 32.72952 | -117.17686 | 26 ft | 0 kts | 79° |
| 2026-05-05 00:26 | 32.72960 | -117.17652 | 26 ft | 5 kts | 72° |
| 2026-05-05 00:26 | 32.72980 | -117.17612 | 27 ft | 5 kts | 50° |
| 2026-05-05 00:26 | 32.73024 | -117.17597 | 27 ft | 7 kts | 315° |
| 2026-05-05 00:27 | 32.73040 | -117.17662 | 27 ft | 8 kts | 286° |
| 2026-05-05 00:27 | 32.73042 | -117.17673 | 27 ft | 0 kts | 286° |
| 2026-05-05 00:28 | 32.73059 | -117.17741 | 26 ft | 35 kts | 287° |
| 2026-05-05 00:28 | 32.73193 | -117.18299 | 25 ft | 101 kts | 286° |
| 2026-05-05 00:28 | 32.73443 | -117.19324 | 25 ft | 154 kts | 286° |
| 2026-05-05 00:28 | 32.73779 | -117.20633 | 355 ft | 169 kts | 286° |
| 2026-05-05 00:29 | 32.74153 | -117.21976 | 887 ft | 176 kts | 288° |
| 2026-05-05 00:29 | 32.74706 | -117.23287 | 1511 ft | 180 kts | 301° |
| 2026-05-05 00:29 | 32.75447 | -117.24455 | 2094 ft | 181 kts | 306° |
| 2026-05-05 00:29 | 32.76264 | -117.25634 | 2580 ft | 187 kts | 308° |
| 2026-05-05 00:30 | 32.77136 | -117.26841 | 3004 ft | 196 kts | 308° |
| 2026-05-05 00:30 | 32.78006 | -117.28109 | 3452 ft | 203 kts | 306° |
| 2026-05-05 00:30 | 32.78875 | -117.29514 | 3761 ft | 221 kts | 302° |
| 2026-05-05 00:30 | 32.79734 | -117.31104 | 4065 ft | 239 kts | 301° |
| 2026-05-05 00:31 | 32.80665 | -117.32835 | 4449 ft | 255 kts | 303° |
| 2026-05-05 00:31 | 32.81720 | -117.34568 | 4984 ft | 265 kts | 305° |
| 2026-05-05 00:31 | 32.82840 | -117.36308 | 5609 ft | 270 kts | 306° |
| 2026-05-05 00:31 | 32.83991 | -117.38090 | 6353 ft | 270 kts | 306° |
| 2026-05-05 00:32 | 32.85124 | -117.39836 | 7201 ft | 266 kts | 306° |
| 2026-05-05 00:32 | 32.86244 | -117.41567 | 7876 ft | 268 kts | 305° |
| 2026-05-05 00:32 | 32.87382 | -117.43330 | 8490 ft | 271 kts | 305° |
| 2026-05-05 00:32 | 32.88533 | -117.45118 | 9133 ft | 273 kts | 304° |
| 2026-05-05 00:33 | 32.89689 | -117.46915 | 9669 ft | 276 kts | 304° |
| 2026-05-05 00:33 | 32.90865 | -117.48747 | 10157 ft | 281 kts | 304° |
| 2026-05-05 00:33 | 32.92059 | -117.50608 | 10553 ft | 292 kts | 304° |
| 2026-05-05 00:33 | 32.93328 | -117.52589 | 10820 ft | 306 kts | 304° |
| 2026-05-05 00:34 | 32.94653 | -117.54653 | 11137 ft | 318 kts | 304° |
| 2026-05-05 00:34 | 32.96004 | -117.56760 | 11640 ft | 323 kts | 304° |
| 2026-05-05 00:34 | 32.97368 | -117.58884 | 12221 ft | 325 kts | 304° |
| 2026-05-05 00:34 | 32.98740 | -117.61021 | 12776 ft | 327 kts | 304° |
| 2026-05-05 00:35 | 33.00126 | -117.63182 | 13306 ft | 330 kts | 304° |
| 2026-05-05 00:35 | 33.01516 | -117.65359 | 13839 ft | 332 kts | 304° |
| 2026-05-05 00:35 | 33.02936 | -117.67577 | 14363 ft | 335 kts | 303° |
| 2026-05-05 00:35 | 33.04346 | -117.69777 | 14887 ft | 337 kts | 303° |
| 2026-05-05 00:36 | 33.05820 | -117.71943 | 15359 ft | 342 kts | 307° |
| 2026-05-05 00:36 | 33.07476 | -117.73994 | 15848 ft | 346 kts | 311° |
| 2026-05-05 00:36 | 33.09293 | -117.75926 | 16370 ft | 349 kts | 314° |
| 2026-05-05 00:36 | 33.11155 | -117.77822 | 16809 ft | 353 kts | 314° |
| 2026-05-05 00:37 | 33.13035 | -117.79726 | 17299 ft | 354 kts | 314° |
| 2026-05-05 00:37 | 33.14909 | -117.81627 | 17743 ft | 356 kts | 314° |
| 2026-05-05 00:37 | 33.16806 | -117.83555 | 18188 ft | 358 kts | 314° |
| 2026-05-05 00:37 | 33.18708 | -117.85491 | 18613 ft | 360 kts | 313° |
| 2026-05-05 00:38 | 33.20634 | -117.87421 | 19023 ft | 363 kts | 313° |
| 2026-05-05 00:38 | 33.22603 | -117.89339 | 19402 ft | 366 kts | 314° |
| 2026-05-05 00:38 | 33.24576 | -117.91254 | 19842 ft | 367 kts | 313° |
| 2026-05-05 00:38 | 33.26564 | -117.93188 | 20261 ft | 369 kts | 313° |
| 2026-05-05 00:39 | 33.28558 | -117.95127 | 20664 ft | 370 kts | 313° |
| 2026-05-05 00:39 | 33.30543 | -117.97063 | 21120 ft | 369 kts | 313° |
| 2026-05-05 00:39 | 33.32528 | -117.99004 | 21497 ft | 371 kts | 312° |
| 2026-05-05 00:39 | 33.34535 | -118.00967 | 21822 ft | 373 kts | 311° |
| 2026-05-05 00:40 | 33.36573 | -118.02961 | 22209 ft | 375 kts | 311° |
| 2026-05-05 00:40 | 33.38574 | -118.04920 | 22584 ft | 376 kts | 311° |
| 2026-05-05 00:40 | 33.40597 | -118.06905 | 22943 ft | 377 kts | 311° |
| 2026-05-05 00:40 | 33.42651 | -118.08920 | 23260 ft | 380 kts | 311° |
| 2026-05-05 00:41 | 33.44706 | -118.10936 | 23536 ft | 383 kts | 311° |
| 2026-05-05 00:41 | 33.46772 | -118.12968 | 23844 ft | 385 kts | 311° |
| 2026-05-05 00:41 | 33.48822 | -118.14983 | 24178 ft | 386 kts | 310° |
| 2026-05-05 00:41 | 33.50928 | -118.17054 | 24428 ft | 389 kts | 310° |
| 2026-05-05 00:42 | 33.53029 | -118.19122 | 24623 ft | 394 kts | 310° |
| 2026-05-05 00:42 | 33.55157 | -118.21197 | 24911 ft | 398 kts | 311° |
| 2026-05-05 00:42 | 33.57442 | -118.23140 | 25212 ft | 405 kts | 316° |
| 2026-05-05 00:42 | 33.59901 | -118.24857 | 25456 ft | 415 kts | 321° |
| 2026-05-05 00:43 | 33.62545 | -118.26394 | 25725 ft | 420 kts | 324° |
| 2026-05-05 00:43 | 33.65227 | -118.27868 | 25967 ft | 424 kts | 324° |
| 2026-05-05 00:43 | 33.67945 | -118.29344 | 26209 ft | 426 kts | 324° |
| 2026-05-05 00:43 | 33.70642 | -118.30817 | 26428 ft | 428 kts | 324° |
| 2026-05-05 00:44 | 33.73380 | -118.32323 | 26632 ft | 431 kts | 324° |
| 2026-05-05 00:44 | 33.76116 | -118.33830 | 26839 ft | 435 kts | 324° |
| 2026-05-05 00:44 | 33.78926 | -118.35290 | 27065 ft | 439 kts | 326° |
| 2026-05-05 00:44 | 33.81767 | -118.36709 | 27295 ft | 441 kts | 326° |
| 2026-05-05 00:45 | 33.84615 | -118.38128 | 27447 ft | 445 kts | 326° |
| 2026-05-05 00:45 | 33.87521 | -118.39576 | 27680 ft | 446 kts | 326° |
| 2026-05-05 00:45 | 33.90381 | -118.41012 | 27984 ft | 445 kts | 326° |
| 2026-05-05 00:45 | 33.93247 | -118.42458 | 28153 ft | 449 kts | 325° |
| 2026-05-05 00:46 | 33.97151 | -118.44393 | 28418 ft | 456 kts | 328° |
| 2026-05-05 00:46 | 33.99160 | -118.45217 | 28564 ft | 462 kts | 332° |
| 2026-05-05 00:46 | 34.02310 | -118.46217 | 28768 ft | 472 kts | 337° |
| 2026-05-05 00:46 | 34.05589 | -118.46904 | 28949 ft | 481 kts | 341° |
| 2026-05-05 00:47 | 34.08958 | -118.47435 | 29170 ft | 484 kts | 342° |
| 2026-05-05 00:47 | 34.12341 | -118.47930 | 29326 ft | 487 kts | 342° |
| 2026-05-05 00:47 | 34.15685 | -118.48412 | 29596 ft | 486 kts | 342° |
| 2026-05-05 00:47 | 34.19040 | -118.48906 | 29833 ft | 485 kts | 342° |
| 2026-05-05 00:48 | 34.22404 | -118.49412 | 30023 ft | 486 kts | 342° |
| 2026-05-05 00:48 | 34.25774 | -118.49928 | 30163 ft | 488 kts | 342° |
| 2026-05-05 00:48 | 34.29155 | -118.50451 | 30337 ft | 489 kts | 342° |
| 2026-05-05 00:48 | 34.32532 | -118.50970 | 30503 ft | 490 kts | 342° |
| 2026-05-05 00:49 | 34.35906 | -118.51495 | 30677 ft | 492 kts | 343° |
| 2026-05-05 00:49 | 34.39317 | -118.52026 | 30817 ft | 494 kts | 343° |
| 2026-05-05 00:49 | 34.42748 | -118.52552 | 30959 ft | 496 kts | 342° |
| 2026-05-05 00:49 | 34.46182 | -118.53077 | 31153 ft | 496 kts | 343° |
| 2026-05-05 00:50 | 34.49629 | -118.53617 | 31311 ft | 498 kts | 343° |
| 2026-05-05 00:50 | 34.53071 | -118.54153 | 31413 ft | 501 kts | 343° |
| 2026-05-05 00:50 | 34.56540 | -118.54687 | 31581 ft | 502 kts | 343° |
| 2026-05-05 00:50 | 34.60027 | -118.55225 | 31818 ft | 501 kts | 343° |
| 2026-05-05 00:51 | 34.63460 | -118.55763 | 31944 ft | 503 kts | 343° |
| 2026-05-05 00:51 | 34.66964 | -118.56305 | 32089 ft | 504 kts | 343° |
| 2026-05-05 00:51 | 34.70452 | -118.56843 | 32377 ft | 501 kts | 343° |
| 2026-05-05 00:51 | 34.73882 | -118.57374 | 32637 ft | 500 kts | 343° |
| 2026-05-05 00:52 | 34.77364 | -118.57918 | 32877 ft | 498 kts | 343° |
| 2026-05-05 00:52 | 34.80806 | -118.58453 | 33112 ft | 497 kts | 343° |
| 2026-05-05 00:52 | 34.84210 | -118.58985 | 33353 ft | 496 kts | 343° |
| 2026-05-05 00:52 | 34.87682 | -118.59530 | 33592 ft | 496 kts | 343° |
| 2026-05-05 00:53 | 34.91097 | -118.60066 | 33822 ft | 495 kts | 344° |
| 2026-05-05 00:53 | 34.94480 | -118.60723 | 34104 ft | 487 kts | 339° |
| 2026-05-05 00:53 | 34.97697 | -118.61740 | 34435 ft | 475 kts | 333° |
| 2026-05-05 00:53 | 35.00770 | -118.63127 | 34666 ft | 465 kts | 327° |
| 2026-05-05 00:54 | 35.03643 | -118.64850 | 34850 ft | 457 kts | 320° |
| 2026-05-05 00:54 | 35.06327 | -118.66882 | 35071 ft | 448 kts | 314° |
| 2026-05-05 00:54 | 35.08799 | -118.69170 | 35287 ft | 441 kts | 310° |
| 2026-05-05 00:54 | 35.11167 | -118.71572 | 35499 ft | 439 kts | 309° |
| 2026-05-05 00:55 | 35.13522 | -118.73998 | 35721 ft | 437 kts | 309° |
| 2026-05-05 00:55 | 35.15857 | -118.76397 | 35866 ft | 438 kts | 310° |
| 2026-05-05 00:55 | 35.18169 | -118.78771 | 35927 ft | 440 kts | 310° |
| 2026-05-05 00:56 | 35.22906 | -118.83606 | 35940 ft | 442 kts | 310° |
| 2026-05-05 00:56 | 35.27663 | -118.88454 | 35944 ft | 444 kts | 310° |
| 2026-05-05 00:57 | 35.32408 | -118.93294 | 35956 ft | 443 kts | 310° |
| 2026-05-05 00:57 | 35.37132 | -118.98122 | 35951 ft | 445 kts | 311° |
| 2026-05-05 00:58 | 35.41890 | -119.02994 | 35966 ft | 446 kts | 311° |
| 2026-05-05 00:58 | 35.46854 | -119.07664 | 35971 ft | 452 kts | 317° |
| 2026-05-05 00:59 | 35.52305 | -119.11671 | 35971 ft | 460 kts | 324° |
| 2026-05-05 00:59 | 35.58154 | -119.14999 | 35971 ft | 464 kts | 328° |
| 2026-05-05 01:00 | 35.64085 | -119.18157 | 35970 ft | 463 kts | 329° |
| 2026-05-05 01:00 | 35.70011 | -119.21326 | 35972 ft | 464 kts | 328° |
| 2026-05-05 01:01 | 35.75936 | -119.24515 | 35974 ft | 465 kts | 329° |
| 2026-05-05 01:01 | 35.81868 | -119.27713 | 35972 ft | 465 kts | 328° |
| 2026-05-05 01:02 | 35.87817 | -119.30930 | 35968 ft | 465 kts | 329° |
| 2026-05-05 01:02 | 35.93749 | -119.34145 | 35967 ft | 465 kts | 329° |
| 2026-05-05 01:03 | 35.99652 | -119.37344 | 35966 ft | 464 kts | 329° |
| 2026-05-05 01:03 | 36.05555 | -119.40552 | 35962 ft | 464 kts | 329° |
| 2026-05-05 01:04 | 36.11483 | -119.43778 | 35963 ft | 463 kts | 329° |
| 2026-05-05 01:04 | 36.20360 | -119.48621 | 35972 ft | 462 kts | 330° |
| 2026-05-05 01:05 | 36.26240 | -119.51833 | 35979 ft | 461 kts | 330° |
| 2026-05-05 01:05 | 36.32099 | -119.55044 | 35985 ft | 460 kts | 330° |
| 2026-05-05 01:06 | 36.37951 | -119.58252 | 35985 ft | 460 kts | 330° |
| 2026-05-05 01:06 | 36.43848 | -119.61490 | 35983 ft | 460 kts | 330° |
| 2026-05-05 01:07 | 36.49696 | -119.64706 | 35981 ft | 459 kts | 331° |
| 2026-05-05 01:07 | 36.55538 | -119.67925 | 35982 ft | 457 kts | 330° |
| 2026-05-05 01:08 | 36.61199 | -119.71465 | 35986 ft | 452 kts | 324° |
| 2026-05-05 01:08 | 36.66529 | -119.75584 | 35989 ft | 450 kts | 322° |
| 2026-05-05 01:09 | 36.71821 | -119.79787 | 35990 ft | 451 kts | 322° |
| 2026-05-05 01:09 | 36.77107 | -119.83977 | 35996 ft | 450 kts | 322° |
| 2026-05-05 01:10 | 36.82404 | -119.88172 | 35999 ft | 449 kts | 322° |
| 2026-05-05 01:10 | 36.87678 | -119.92360 | 35999 ft | 447 kts | 323° |
| 2026-05-05 01:11 | 36.92928 | -119.96530 | 35998 ft | 448 kts | 323° |
| 2026-05-05 01:11 | 36.98170 | -120.00704 | 35999 ft | 447 kts | 324° |
| 2026-05-05 01:12 | 37.03431 | -120.04894 | 35999 ft | 448 kts | 323° |
| 2026-05-05 01:12 | 37.06062 | -120.06994 | 35693 ft | 450 kts | 324° |
| 2026-05-05 01:12 | 37.08718 | -120.09119 | 34867 ft | 458 kts | 324° |
| 2026-05-05 01:13 | 37.11440 | -120.11304 | 34067 ft | 461 kts | 324° |
| 2026-05-05 01:13 | 37.14104 | -120.13434 | 33323 ft | 457 kts | 325° |
| 2026-05-05 01:13 | 37.16806 | -120.15609 | 32153 ft | 464 kts | 327° |
| 2026-05-05 01:13 | 37.19501 | -120.17787 | 30857 ft | 475 kts | 329° |
| 2026-05-05 01:14 | 37.22303 | -120.20039 | 29580 ft | 486 kts | 331° |
| 2026-05-05 01:14 | 37.25161 | -120.22320 | 28790 ft | 483 kts | 331° |
| 2026-05-05 01:14 | 37.28006 | -120.24590 | 27927 ft | 483 kts | 332° |
| 2026-05-05 01:14 | 37.30826 | -120.26807 | 27423 ft | 475 kts | 332° |
| 2026-05-05 01:15 | 37.33606 | -120.28966 | 27003 ft | 465 kts | 333° |
| 2026-05-05 01:15 | 37.36318 | -120.31074 | 26391 ft | 453 kts | 333° |
| 2026-05-05 01:15 | 37.38963 | -120.33132 | 25729 ft | 440 kts | 333° |
| 2026-05-05 01:15 | 37.41502 | -120.35111 | 25082 ft | 429 kts | 334° |
| 2026-05-05 01:16 | 37.44011 | -120.37071 | 24511 ft | 415 kts | 334° |
| 2026-05-05 01:16 | 37.46397 | -120.38997 | 23976 ft | 404 kts | 332° |
| 2026-05-05 01:16 | 37.48671 | -120.41085 | 23479 ft | 403 kts | 328° |
| 2026-05-05 01:16 | 37.50854 | -120.43241 | 22988 ft | 401 kts | 327° |
| 2026-05-05 01:17 | 37.53045 | -120.45438 | 22496 ft | 399 kts | 327° |
| 2026-05-05 01:17 | 37.55199 | -120.47609 | 22014 ft | 397 kts | 326° |
| 2026-05-05 01:17 | 37.57344 | -120.49766 | 21510 ft | 395 kts | 326° |
| 2026-05-05 01:17 | 37.59493 | -120.51928 | 21026 ft | 393 kts | 326° |
| 2026-05-05 01:18 | 37.61618 | -120.54065 | 20781 ft | 383 kts | 326° |
| 2026-05-05 01:18 | 37.63677 | -120.56131 | 20808 ft | 379 kts | 326° |
| 2026-05-05 01:18 | 37.65725 | -120.58182 | 20637 ft | 380 kts | 326° |
| 2026-05-05 01:18 | 37.67812 | -120.60270 | 20186 ft | 378 kts | 326° |
| 2026-05-05 01:19 | 37.69857 | -120.62322 | 19770 ft | 376 kts | 326° |
| 2026-05-05 01:19 | 37.71885 | -120.64359 | 19350 ft | 373 kts | 326° |
| 2026-05-05 01:19 | 37.73921 | -120.66405 | 18931 ft | 371 kts | 325° |
| 2026-05-05 01:19 | 37.75921 | -120.68418 | 18839 ft | 364 kts | 325° |
| 2026-05-05 01:20 | 37.77912 | -120.70424 | 18617 ft | 366 kts | 324° |
| 2026-05-05 01:20 | 37.79899 | -120.72422 | 18180 ft | 364 kts | 324° |
| 2026-05-05 01:20 | 37.81844 | -120.74383 | 17771 ft | 361 kts | 324° |
| 2026-05-05 01:20 | 37.83823 | -120.76380 | 17355 ft | 359 kts | 324° |
| 2026-05-05 01:21 | 37.85749 | -120.78323 | 16943 ft | 357 kts | 324° |
| 2026-05-05 01:21 | 37.87670 | -120.80268 | 16799 ft | 348 kts | 324° |
| 2026-05-05 01:21 | 37.89582 | -120.82210 | 16411 ft | 348 kts | 323° |
| 2026-05-05 01:21 | 37.91453 | -120.84112 | 15984 ft | 347 kts | 323° |
| 2026-05-05 01:22 | 37.93340 | -120.86032 | 15556 ft | 345 kts | 323° |
| 2026-05-05 01:22 | 37.95198 | -120.87921 | 15145 ft | 342 kts | 323° |
| 2026-05-05 01:22 | 37.97044 | -120.89801 | 14788 ft | 340 kts | 323° |
| 2026-05-05 01:22 | 37.98885 | -120.91678 | 14386 ft | 339 kts | 322° |
| 2026-05-05 01:23 | 38.00716 | -120.93547 | 13980 ft | 337 kts | 322° |
| 2026-05-05 01:23 | 38.02555 | -120.95424 | 13577 ft | 335 kts | 322° |
| 2026-05-05 01:23 | 38.04365 | -120.97275 | 13189 ft | 333 kts | 322° |
| 2026-05-05 01:23 | 38.06142 | -120.99119 | 12795 ft | 331 kts | 320° |
| 2026-05-05 01:24 | 38.07824 | -121.01106 | 12403 ft | 329 kts | 315° |
| 2026-05-05 01:24 | 38.09375 | -121.03239 | 12007 ft | 328 kts | 312° |
| 2026-05-05 01:24 | 38.10869 | -121.05434 | 11597 ft | 326 kts | 311° |
| 2026-05-05 01:24 | 38.12329 | -121.07597 | 11202 ft | 324 kts | 311° |
| 2026-05-05 01:25 | 38.13808 | -121.09789 | 10815 ft | 322 kts | 312° |
| 2026-05-05 01:25 | 38.15241 | -121.11912 | 10490 ft | 317 kts | 312° |
| 2026-05-05 01:25 | 38.16676 | -121.14033 | 10213 ft | 310 kts | 311° |
| 2026-05-05 01:25 | 38.18057 | -121.16075 | 10030 ft | 299 kts | 312° |
| 2026-05-05 01:26 | 38.19382 | -121.18032 | 9921 ft | 288 kts | 312° |
| 2026-05-05 01:26 | 38.20689 | -121.19953 | 9564 ft | 286 kts | 312° |
| 2026-05-05 01:26 | 38.22042 | -121.21858 | 8996 ft | 292 kts | 315° |
| 2026-05-05 01:26 | 38.23453 | -121.23657 | 8775 ft | 280 kts | 316° |
| 2026-05-05 01:27 | 38.24839 | -121.25407 | 8800 ft | 280 kts | 316° |
| 2026-05-05 01:27 | 38.26234 | -121.27166 | 8825 ft | 281 kts | 316° |
| 2026-05-05 01:27 | 38.27612 | -121.28908 | 8851 ft | 281 kts | 316° |
| 2026-05-05 01:27 | 38.28995 | -121.30656 | 8877 ft | 281 kts | 316° |
| 2026-05-05 01:28 | 38.30392 | -121.32426 | 8902 ft | 281 kts | 316° |
| 2026-05-05 01:28 | 38.31778 | -121.34182 | 8928 ft | 281 kts | 316° |
| 2026-05-05 01:28 | 38.33154 | -121.35928 | 8942 ft | 281 kts | 316° |
| 2026-05-05 01:28 | 38.34553 | -121.37703 | 8947 ft | 281 kts | 316° |
| 2026-05-05 01:29 | 38.35936 | -121.39458 | 8953 ft | 281 kts | 316° |
| 2026-05-05 01:29 | 38.37318 | -121.41214 | 8955 ft | 281 kts | 316° |
| 2026-05-05 01:29 | 38.38704 | -121.42977 | 8961 ft | 281 kts | 316° |
| 2026-05-05 01:29 | 38.40098 | -121.44752 | 8963 ft | 281 kts | 316° |
| 2026-05-05 01:30 | 38.41488 | -121.46522 | 8965 ft | 281 kts | 316° |
| 2026-05-05 01:30 | 38.42864 | -121.48275 | 8965 ft | 281 kts | 316° |
| 2026-05-05 01:30 | 38.44261 | -121.50056 | 8959 ft | 282 kts | 316° |
| 2026-05-05 01:30 | 38.45646 | -121.51822 | 8794 ft | 284 kts | 316° |
| 2026-05-05 01:31 | 38.47055 | -121.53599 | 8394 ft | 283 kts | 318° |
| 2026-05-05 01:31 | 38.48543 | -121.55238 | 8026 ft | 281 kts | 322° |
| 2026-05-05 01:31 | 38.50074 | -121.56787 | 7666 ft | 279 kts | 322° |
| 2026-05-05 01:31 | 38.51601 | -121.58316 | 7315 ft | 277 kts | 322° |
| 2026-05-05 01:32 | 38.53108 | -121.59825 | 6967 ft | 275 kts | 322° |
| 2026-05-05 01:32 | 38.54613 | -121.61336 | 6612 ft | 273 kts | 321° |
| 2026-05-05 01:32 | 38.56091 | -121.62825 | 6270 ft | 272 kts | 321° |
| 2026-05-05 01:32 | 38.57605 | -121.64295 | 5915 ft | 270 kts | 327° |
| 2026-05-05 01:33 | 38.59257 | -121.65378 | 5583 ft | 270 kts | 338° |
| 2026-05-05 01:33 | 38.61070 | -121.66136 | 5254 ft | 268 kts | 342° |
| 2026-05-05 01:33 | 38.62851 | -121.66803 | 4933 ft | 266 kts | 342° |
| 2026-05-05 01:33 | 38.64614 | -121.67458 | 4610 ft | 264 kts | 342° |
| 2026-05-05 01:34 | 38.66364 | -121.68123 | 4288 ft | 262 kts | 342° |
| 2026-05-05 01:34 | 38.68109 | -121.68791 | 4001 ft | 258 kts | 342° |
| 2026-05-05 01:34 | 38.69806 | -121.69441 | 3948 ft | 244 kts | 341° |
| 2026-05-05 01:34 | 38.71381 | -121.70041 | 3944 ft | 233 kts | 343° |
| 2026-05-05 01:35 | 38.72973 | -121.70396 | 3888 ft | 231 kts | 355° |
| 2026-05-05 01:35 | 38.74600 | -121.70345 | 3554 ft | 233 kts | 6° |
| 2026-05-05 01:35 | 38.76187 | -121.70046 | 3273 ft | 230 kts | 5° |
| 2026-05-05 01:35 | 38.77788 | -121.69891 | 3053 ft | 225 kts | 1° |
| 2026-05-05 01:36 | 38.79348 | -121.69817 | 2767 ft | 223 kts | 0° |
| 2026-05-05 01:36 | 38.80909 | -121.69762 | 2454 ft | 224 kts | 360° |
| 2026-05-05 01:36 | 38.82479 | -121.69717 | 2150 ft | 223 kts | 360° |
| 2026-05-05 01:36 | 38.84030 | -121.69677 | 1947 ft | 221 kts | 0° |
| 2026-05-05 01:37 | 38.85587 | -121.69640 | 1949 ft | 224 kts | 0° |
| 2026-05-05 01:37 | 38.87147 | -121.69501 | 1932 ft | 223 kts | 15° |
| 2026-05-05 01:37 | 38.88449 | -121.68533 | 1914 ft | 215 kts | 51° |
| 2026-05-05 01:37 | 38.89059 | -121.66832 | 1929 ft | 208 kts | 89° |
| 2026-05-05 01:38 | 38.88775 | -121.65077 | 1940 ft | 202 kts | 125° |
| 2026-05-05 01:38 | 38.87742 | -121.63921 | 1949 ft | 199 kts | 161° |
| 2026-05-05 01:38 | 38.86380 | -121.63801 | 1961 ft | 198 kts | 192° |
| 2026-05-05 01:38 | 38.85019 | -121.64096 | 1949 ft | 198 kts | 176° |
| 2026-05-05 01:39 | 38.83683 | -121.63616 | 1956 ft | 199 kts | 156° |
| 2026-05-05 01:39 | 38.82464 | -121.62841 | 1943 ft | 191 kts | 153° |
| 2026-05-05 01:39 | 38.81295 | -121.62033 | 1946 ft | 190 kts | 153° |
| 2026-05-05 01:39 | 38.80122 | -121.61213 | 2006 ft | 189 kts | 152° |
| 2026-05-05 01:40 | 38.78972 | -121.60413 | 2012 ft | 191 kts | 154° |
| 2026-05-05 01:40 | 38.77689 | -121.59963 | 1511 ft | 192 kts | 175° |
| 2026-05-05 01:40 | 38.76384 | -121.59965 | 1146 ft | 177 kts | 181° |
| 2026-05-05 01:40 | 38.75197 | -121.60033 | 954 ft | 164 kts | 181° |
| 2026-05-05 01:41 | 38.74116 | -121.60059 | 705 ft | 149 kts | 179° |
| 2026-05-05 01:41 | 38.73090 | -121.60070 | 517 ft | 147 kts | 179° |
| 2026-05-05 01:41 | 38.72049 | -121.60090 | 312 ft | 147 kts | 179° |
| 2026-05-05 01:41 | 38.71024 | -121.60107 | 125 ft | 147 kts | 178° |
| 2026-05-05 01:42 | 38.70007 | -121.60125 | 32 ft | 137 kts | 178° |
| 2026-05-05 01:42 | 38.69192 | -121.60136 | 30 ft | 93 kts | 180° |
| 2026-05-05 01:42 | 38.68697 | -121.60145 | 30 ft | 58 kts | 178° |
| 2026-05-05 01:42 | 38.68456 | -121.60143 | 30 ft | 19 kts | 179° |
| 2026-05-05 01:43 | 38.68386 | -121.60071 | 30 ft | 12 kts | 98° |
| 2026-05-05 01:43 | 38.68384 | -121.60019 | 29 ft | 0 kts | 90° |
| 2026-05-05 01:44 | 38.68384 | -121.60001 | 30 ft | 6 kts | 91° |
| 2026-05-05 01:44 | 38.68384 | -121.59936 | 30 ft | 7 kts | 81° |
| 2026-05-05 01:44 | 38.68423 | -121.59890 | 30 ft | 8 kts | 12° |
| 2026-05-05 01:45 | 38.68485 | -121.59884 | 30 ft | 9 kts | 0° |
| 2026-05-05 01:45 | 38.68552 | -121.59883 | 30 ft | 10 kts | 0° |
| 2026-05-05 01:45 | 38.68625 | -121.59882 | 30 ft | 10 kts | 1° |
| 2026-05-05 01:45 | 38.68706 | -121.59880 | 30 ft | 12 kts | 1° |
| 2026-05-05 01:46 | 38.68793 | -121.59879 | 30 ft | 14 kts | 359° |
| 2026-05-05 01:46 | 38.68932 | -121.59876 | 30 ft | 20 kts | 1° |
| 2026-05-05 01:46 | 38.69095 | -121.59875 | 30 ft | 23 kts | 1° |
| 2026-05-05 01:46 | 38.69255 | -121.59870 | 30 ft | 22 kts | 0° |
| 2026-05-05 01:47 | 38.69411 | -121.59868 | 30 ft | 21 kts | 0° |
| 2026-05-05 01:47 | 38.69557 | -121.59866 | 30 ft | 19 kts | 359° |
| 2026-05-05 01:47 | 38.69674 | -121.59860 | 30 ft | 15 kts | 18° |
| 2026-05-05 01:47 | 38.69702 | -121.59762 | 30 ft | 12 kts | 90° |
| 2026-05-05 01:48 | 38.69700 | -121.59650 | 30 ft | 12 kts | 97° |
| 2026-05-05 01:48 | 38.69636 | -121.59598 | 30 ft | 12 kts | 179° |
| 2026-05-05 01:48 | 38.69550 | -121.59599 | 30 ft | 12 kts | 181° |
| 2026-05-05 01:48 | 38.69481 | -121.59593 | 30 ft | 8 kts | 156° |
| 2026-05-05 01:49 | 38.69454 | -121.59525 | 30 ft | 9 kts | 91° |
| 2026-05-05 01:49 | 38.69456 | -121.59454 | 30 ft | 4 kts | 72° |
| 2026-05-05 01:49 | 38.69478 | -121.59421 | 30 ft | 5 kts | 33° |
| 2026-05-05 01:49 | 38.69501 | -121.59406 | 30 ft | 3 kts | 25° |
| 2026-05-05 01:50 | 38.69511 | -121.59400 | 30 ft | 0 kts | 24° |
| 2026-05-05 01:50 | 38.69514 | -121.59399 | 30 ft | 0 kts | 24° |